createdAt,value
2017-09-21T00:00:05.792Z,47
2017-09-21T00:02:05.530Z,46.8
2017-09-21T00:04:07.837Z,46.7
2017-09-21T00:06:05.524Z,46.7
2017-09-21T00:08:05.341Z,46.8
2017-09-21T00:10:05.067Z,46.8
2017-09-21T00:12:05.841Z,46.8
2017-09-21T00:14:05.699Z,46.7
2017-09-21T00:16:07.950Z,46.7
2017-09-21T00:18:05.913Z,46.7
2017-09-21T00:20:05.979Z,46.7
2017-09-21T00:22:05.672Z,46.8
2017-09-21T00:24:05.592Z,46.8
2017-09-21T00:26:07.818Z,46.7
2017-09-21T00:28:05.538Z,46.7
2017-09-21T00:30:05.303Z,46.7
2017-09-21T00:32:05.073Z,46.7
2017-09-21T00:34:13.340Z,46.5
2017-09-21T00:36:05.074Z,46.7
2017-09-21T00:38:05.967Z,46.7
2017-09-21T00:40:05.833Z,46.8
2017-09-21T00:42:05.510Z,46.7
2017-09-21T00:44:05.374Z,46.7
2017-09-21T00:46:05.127Z,46.7
2017-09-21T00:48:05.818Z,46.7
2017-09-21T00:50:05.219Z,46.8
2017-09-21T00:52:05.412Z,46.7
2017-09-21T00:54:05.097Z,46.5
2017-09-21T00:56:05.933Z,46.8
2017-09-21T00:58:05.609Z,46.5
2017-09-21T01:00:05.350Z,46.5
2017-09-21T01:02:05.045Z,46.5
2017-09-21T01:04:05.234Z,46.5
2017-09-21T01:06:07.986Z,46.8
2017-09-21T01:08:05.350Z,46.5
2017-09-21T01:10:05.090Z,46.5
2017-09-21T01:12:08.393Z,46.6
2017-09-21T01:14:05.321Z,46.6
2017-09-21T01:16:07.554Z,46.5
2017-09-21T01:18:05.507Z,46.5
2017-09-21T01:20:05.217Z,46.5
2017-09-21T01:22:08.460Z,46.5
2017-09-21T01:24:05.183Z,46.6
2017-09-21T01:26:06.070Z,46.6
2017-09-21T01:28:05.776Z,46.6
2017-09-21T01:30:14.007Z,46.6
2017-09-21T01:32:05.488Z,46.6
2017-09-21T01:34:05.224Z,46.6
2017-09-21T01:36:08.498Z,46.6
2017-09-21T01:38:07.851Z,46.6
2017-09-21T01:40:05.541Z,46.6
2017-09-21T01:42:05.226Z,46.6
2017-09-21T01:44:05.797Z,46.6
2017-09-21T01:46:05.495Z,46.6
2017-09-21T01:48:05.826Z,46.6
2017-09-21T01:50:05.698Z,46.6
2017-09-21T01:52:05.363Z,46.6
2017-09-21T01:54:05.602Z,46.6
2017-09-21T01:56:05.334Z,46.6
2017-09-21T01:58:05.574Z,46.6
2017-09-21T02:00:05.398Z,46.6
2017-09-21T02:02:10.155Z,46.6
2017-09-21T02:04:10.958Z,46.6
2017-09-21T02:06:05.664Z,46.4
2017-09-21T02:08:05.522Z,46.4
2017-09-21T02:10:05.207Z,46.5
2017-09-21T02:12:05.427Z,46.5
2017-09-21T02:14:05.395Z,46.7
2017-09-21T02:16:05.440Z,46.5
2017-09-21T02:18:05.364Z,46.5
2017-09-21T02:20:05.238Z,46.7
2017-09-21T02:22:05.537Z,46.7
2017-09-21T02:24:07.749Z,46.7
2017-09-21T02:26:05.558Z,46.5
2017-09-21T02:28:10.403Z,46.5
2017-09-21T02:30:07.650Z,46.5
2017-09-21T02:32:05.536Z,46.7
2017-09-21T02:34:07.796Z,46.5
2017-09-21T02:36:05.508Z,46.5
2017-09-21T02:38:05.278Z,46.5
2017-09-21T02:40:05.498Z,46.5
2017-09-21T02:42:05.285Z,46.5
2017-09-21T02:44:10.608Z,46.5
2017-09-21T02:46:05.323Z,46.5
2017-09-21T02:48:06.184Z,46.7
2017-09-21T02:50:05.447Z,46.4
2017-09-21T02:52:05.279Z,46.4
2017-09-21T02:54:05.996Z,46.4
2017-09-21T02:56:05.732Z,46.4
2017-09-21T02:58:05.498Z,46.3
2017-09-21T03:00:05.422Z,46.4
2017-09-21T03:02:05.178Z,46.3
2017-09-21T03:04:06.061Z,46.4
2017-09-21T03:06:05.768Z,46.4
2017-09-21T03:08:06.079Z,46.4
2017-09-21T03:10:05.864Z,46.4
2017-09-21T03:12:05.627Z,46.4
2017-09-21T03:14:05.494Z,46.4
2017-09-21T03:16:05.744Z,46.4
2017-09-21T03:18:05.657Z,46.4
2017-09-21T03:20:11.206Z,46.4
2017-09-21T03:22:05.973Z,46.4
2017-09-21T03:24:05.827Z,46.4
2017-09-21T03:26:05.501Z,46.4
2017-09-21T03:28:05.215Z,46.4
2017-09-21T03:30:10.983Z,46.4
2017-09-21T03:32:06.061Z,46.4
2017-09-21T03:34:05.751Z,46.4
2017-09-21T03:36:05.447Z,46.5
2017-09-21T03:38:05.259Z,46.5
2017-09-21T03:40:05.465Z,46.4
2017-09-21T03:42:05.762Z,46.4
2017-09-21T03:44:05.581Z,46.4
2017-09-21T03:46:05.319Z,46.2
2017-09-21T03:48:04.999Z,46.2
2017-09-21T03:50:10.938Z,46.2
2017-09-21T03:52:08.254Z,46.1
2017-09-21T03:54:06.027Z,46.1
2017-09-21T03:56:10.803Z,46.2
2017-09-21T03:58:05.522Z,46.1
2017-09-21T04:00:05.230Z,46.1
2017-09-21T04:02:05.908Z,46.2
2017-09-21T04:04:05.604Z,46.1
2017-09-21T04:06:05.298Z,46.1
2017-09-21T04:08:08.192Z,46.1
2017-09-21T04:10:05.955Z,46.1
2017-09-21T04:12:05.649Z,46.1
2017-09-21T04:14:08.046Z,46.2
2017-09-21T04:16:05.800Z,46.2
2017-09-21T04:18:05.716Z,46.1
2017-09-21T04:20:05.569Z,46.1
2017-09-21T04:22:07.752Z,46.2
2017-09-21T04:24:05.674Z,46.1
2017-09-21T04:26:08.135Z,46.1
2017-09-21T04:28:05.812Z,46.1
2017-09-21T04:30:05.521Z,46.1
2017-09-21T04:32:05.776Z,46.1
2017-09-21T04:34:05.042Z,46.1
2017-09-21T04:36:05.752Z,46.1
2017-09-21T04:38:05.643Z,46.1
2017-09-21T04:40:05.326Z,46.1
2017-09-21T04:42:05.036Z,46.1
2017-09-21T04:44:08.293Z,46
2017-09-21T04:46:06.007Z,45.8
2017-09-21T04:48:05.247Z,46.1
2017-09-21T04:50:05.682Z,46.1
2017-09-21T04:52:05.398Z,45.8
2017-09-21T04:54:08.765Z,45.6
2017-09-21T04:56:08.264Z,45.8
2017-09-21T04:58:06.000Z,46
2017-09-21T05:00:05.714Z,46
2017-09-21T05:02:05.717Z,46
2017-09-21T05:04:05.437Z,45.8
2017-09-21T05:06:05.118Z,46
2017-09-21T05:08:05.559Z,45.8
2017-09-21T05:10:05.331Z,46
2017-09-21T05:12:05.174Z,45.7
2017-09-21T05:14:06.122Z,45.7
2017-09-21T05:16:05.817Z,45.7
2017-09-21T05:18:05.824Z,45.7
2017-09-21T05:20:05.739Z,45.7
2017-09-21T05:22:08.517Z,45.7
2017-09-21T05:24:07.771Z,45.7
2017-09-21T05:26:05.660Z,45.7
2017-09-21T05:28:11.175Z,45.6
2017-09-21T05:30:05.899Z,45.6
2017-09-21T05:32:05.396Z,45.6
2017-09-21T05:34:05.125Z,45.6
2017-09-21T05:36:05.335Z,45.6
2017-09-21T05:38:05.064Z,45.6
2017-09-21T05:40:05.290Z,45.6
2017-09-21T05:42:08.595Z,45.5
2017-09-21T05:44:05.551Z,45.5
2017-09-21T05:46:05.823Z,45.5
2017-09-21T05:48:05.583Z,45.5
2017-09-21T05:50:05.429Z,45.5
2017-09-21T05:52:05.166Z,45.5
2017-09-21T05:54:05.944Z,45.7
2017-09-21T05:56:05.687Z,45.7
2017-09-21T05:58:05.422Z,45.7
2017-09-21T06:00:05.144Z,45.7
2017-09-21T06:02:05.381Z,45.6
2017-09-21T06:04:05.090Z,45.7
2017-09-21T06:06:05.804Z,45.7
2017-09-21T06:08:05.570Z,45.8
2017-09-21T06:10:07.938Z,45.7
2017-09-21T06:12:08.169Z,45.7
2017-09-21T06:14:06.084Z,46
2017-09-21T06:16:05.990Z,45.9
2017-09-21T06:18:06.009Z,45.9
2017-09-21T06:20:05.905Z,46.1
2017-09-21T06:22:05.636Z,46.1
2017-09-21T06:24:10.419Z,46.4
2017-09-21T06:26:12.873Z,46.6
2017-09-21T06:28:05.655Z,46.6
2017-09-21T06:30:05.352Z,46.4
2017-09-21T06:32:05.179Z,46.6
2017-09-21T06:34:05.460Z,46.5
2017-09-21T06:36:05.220Z,46.5
2017-09-21T06:38:06.181Z,46.5
2017-09-21T06:40:06.107Z,46.6
2017-09-21T06:42:06.223Z,47
2017-09-21T06:44:05.540Z,47
2017-09-21T06:46:08.026Z,47.4
2017-09-21T06:48:05.782Z,47.4
2017-09-21T06:50:07.673Z,47.7
2017-09-21T06:52:05.378Z,47.7
2017-09-21T06:54:05.126Z,47.6
2017-09-21T06:56:05.521Z,47.6
2017-09-21T06:58:05.261Z,47.8
2017-09-21T07:00:06.020Z,48
2017-09-21T07:02:05.828Z,47.8
2017-09-21T07:04:05.887Z,47.8
2017-09-21T07:06:05.396Z,47.7
2017-09-21T07:08:05.649Z,47.8
2017-09-21T07:10:05.365Z,47.8
2017-09-21T07:12:06.261Z,47.8
2017-09-21T07:14:05.128Z,47.9
2017-09-21T07:16:13.443Z,47.9
2017-09-21T07:18:07.879Z,47.7
2017-09-21T07:20:05.725Z,47.7
2017-09-21T07:22:05.441Z,47.8
2017-09-21T07:24:07.697Z,47.8
2017-09-21T07:26:06.155Z,47.5
2017-09-21T07:28:06.050Z,47.4
2017-09-21T07:30:05.774Z,47.6
2017-09-21T07:32:08.141Z,47.5
2017-09-21T07:34:05.911Z,47.6
2017-09-21T07:36:10.949Z,47.4
2017-09-21T07:38:07.798Z,47.4
2017-09-21T07:40:10.556Z,47.3
2017-09-21T07:42:10.322Z,47.3
2017-09-21T07:44:05.416Z,47.3
2017-09-21T07:46:05.116Z,47.2
2017-09-21T07:48:05.800Z,47.4
2017-09-21T07:50:08.216Z,47.3
2017-09-21T07:52:05.385Z,47.3
2017-09-21T07:54:07.653Z,47.1
2017-09-21T07:56:10.433Z,47.1
2017-09-21T07:58:05.135Z,47.1
2017-09-21T08:00:08.371Z,47.2
2017-09-21T08:02:05.425Z,46.9
2017-09-21T08:04:05.139Z,47.3
2017-09-21T08:06:10.899Z,47.1
2017-09-21T08:08:05.957Z,47.1
2017-09-21T08:10:08.248Z,47.4
2017-09-21T08:12:09.744Z,47.3
2017-09-21T08:14:05.592Z,47.3
2017-09-21T08:16:05.295Z,47.5
2017-09-21T08:18:05.178Z,47.5
2017-09-21T08:20:06.016Z,47.4
2017-09-21T08:22:05.851Z,47.3
2017-09-21T08:24:08.430Z,47.3
2017-09-21T08:26:05.369Z,47.6
2017-09-21T08:28:05.138Z,47.6
2017-09-21T08:30:05.058Z,47.6
2017-09-21T08:32:10.878Z,47.8
2017-09-21T08:34:08.122Z,47.8
2017-09-21T08:36:05.786Z,47.8
2017-09-21T08:38:13.464Z,47.8
2017-09-21T08:40:05.123Z,47.8
2017-09-21T08:42:05.773Z,47.7
2017-09-21T08:44:07.728Z,47.8
2017-09-21T08:46:05.997Z,47.6
2017-09-21T08:48:13.296Z,47.3
2017-09-21T08:50:06.287Z,47.6
2017-09-21T08:52:05.510Z,47.5
2017-09-21T08:54:07.800Z,47.4
2017-09-21T08:56:05.073Z,47.4
2017-09-21T08:58:05.829Z,47.3
2017-09-21T09:00:05.518Z,47.3
2017-09-21T09:02:05.571Z,47.3
2017-09-21T09:04:05.313Z,47.4
2017-09-21T09:06:07.558Z,47.4
2017-09-21T09:08:10.421Z,47.4
2017-09-21T09:10:07.654Z,47.4
2017-09-21T09:12:08.048Z,47.5
2017-09-21T09:14:05.360Z,47.5
2017-09-21T09:16:05.147Z,47.4
2017-09-21T09:18:12.732Z,47.4
2017-09-21T09:20:05.611Z,47.4
2017-09-21T09:22:07.928Z,47.4
2017-09-21T09:24:05.225Z,47.4
2017-09-21T09:26:06.276Z,47.2
2017-09-21T09:28:06.169Z,47.2
2017-09-21T09:30:05.896Z,47.1
2017-09-21T09:32:06.982Z,47.1
2017-09-21T09:34:05.423Z,47.1
2017-09-21T09:36:05.156Z,47.3
2017-09-21T09:38:08.011Z,47.3
2017-09-21T09:40:05.965Z,47.3
2017-09-21T09:42:05.646Z,47.4
2017-09-21T09:44:05.659Z,47.4
2017-09-21T09:46:07.963Z,47.5
2017-09-21T09:48:05.727Z,47.4
2017-09-21T09:50:05.549Z,47.4
2017-09-21T09:52:05.895Z,47.2
2017-09-21T09:54:05.614Z,47.1
2017-09-21T09:56:05.371Z,47.1
2017-09-21T09:58:05.070Z,47
2017-09-21T10:00:05.794Z,46.9
2017-09-21T10:02:05.306Z,46.8
2017-09-21T10:04:06.003Z,46.8
2017-09-21T10:06:05.682Z,46.7
2017-09-21T10:08:08.139Z,46.6
2017-09-21T10:10:08.415Z,46.5
2017-09-21T10:12:10.481Z,46.6
2017-09-21T10:14:05.471Z,46.6
2017-09-21T10:16:08.439Z,46.6
2017-09-21T10:18:08.474Z,46.7
2017-09-21T10:20:05.292Z,46.7
2017-09-21T10:22:05.990Z,46.7
2017-09-21T10:24:05.786Z,46.9
2017-09-21T10:26:05.707Z,47
2017-09-21T10:28:05.705Z,46.8
2017-09-21T10:30:05.506Z,46.8
2017-09-21T10:32:07.890Z,46.7
2017-09-21T10:34:05.652Z,46.9
2017-09-21T10:36:05.331Z,46.8
2017-09-21T10:38:07.904Z,46.8
2017-09-21T10:40:05.636Z,46.9
2017-09-21T10:42:08.147Z,46.7
2017-09-21T10:44:06.140Z,46.7
2017-09-21T10:46:05.822Z,46.7
2017-09-21T10:48:05.616Z,46.8
2017-09-21T10:50:10.735Z,46.9
2017-09-21T10:52:05.428Z,46.9
2017-09-21T10:54:08.226Z,46.8
2017-09-21T10:56:06.065Z,46.5
2017-09-21T10:58:05.841Z,46.8
2017-09-21T11:00:05.760Z,47
2017-09-21T11:02:06.151Z,46.9
2017-09-21T11:04:06.071Z,46.9
2017-09-21T11:06:08.327Z,46.9
2017-09-21T11:08:12.617Z,46.9
2017-09-21T11:10:10.915Z,46.9
2017-09-21T11:12:05.587Z,46.9
2017-09-21T11:14:10.871Z,46.7
2017-09-21T11:16:10.857Z,46.7
2017-09-21T11:18:05.733Z,46.7
2017-09-21T11:20:13.213Z,46.7
2017-09-21T11:22:05.896Z,46.7
2017-09-21T11:24:05.595Z,46.7
2017-09-21T11:26:08.153Z,46.7
2017-09-21T11:28:05.979Z,46.7
2017-09-21T11:30:05.742Z,46.7
2017-09-21T11:32:05.486Z,46.7
2017-09-21T11:34:05.223Z,46.7
2017-09-21T11:36:05.937Z,46.7
2017-09-21T11:38:05.174Z,46.7
2017-09-21T11:40:10.926Z,46.4
2017-09-21T11:42:05.177Z,46.7
2017-09-21T11:44:05.916Z,46.7
2017-09-21T11:46:05.162Z,46.4
2017-09-21T11:48:06.099Z,46.4
2017-09-21T11:50:08.515Z,46.5
2017-09-21T11:52:07.778Z,46.5
2017-09-21T11:54:05.088Z,46.5
2017-09-21T11:56:08.477Z,46.5
2017-09-21T11:58:05.250Z,46.6
2017-09-21T12:00:06.038Z,46.6
2017-09-21T12:02:05.781Z,46.7
2017-09-21T12:04:06.002Z,46.7
2017-09-21T12:06:05.260Z,46.8
2017-09-21T12:08:08.649Z,46.8
2017-09-21T12:10:05.383Z,46.9
2017-09-21T12:12:05.117Z,46.9
2017-09-21T12:14:05.936Z,46.9
2017-09-21T12:16:05.928Z,46.5
2017-09-21T12:18:05.871Z,46.2
2017-09-21T12:20:10.628Z,46.7
2017-09-21T12:22:05.379Z,46.7
2017-09-21T12:24:07.732Z,46.8
2017-09-21T12:26:05.426Z,46.6
2017-09-21T12:28:05.173Z,46.8
2017-09-21T12:30:07.715Z,46.5
2017-09-21T12:32:05.586Z,46.5
2017-09-21T12:34:05.516Z,46.5
2017-09-21T12:36:05.391Z,46.5
2017-09-21T12:38:08.408Z,46.6
2017-09-21T12:40:07.724Z,46.7
2017-09-21T12:42:05.443Z,46.7
2017-09-21T12:44:07.716Z,47.1
2017-09-21T12:46:05.433Z,47.1
2017-09-21T12:48:07.773Z,47
2017-09-21T12:50:05.667Z,47
2017-09-21T12:52:05.446Z,46.8
2017-09-21T12:54:07.678Z,46.6
2017-09-21T12:56:05.407Z,46.6
2017-09-21T12:58:05.126Z,46.8
2017-09-21T13:00:05.776Z,46.9
2017-09-21T13:02:05.502Z,47.1
2017-09-21T13:04:05.164Z,47.3
2017-09-21T13:06:05.905Z,47.5
2017-09-21T13:08:08.258Z,47
2017-09-21T13:10:05.943Z,47
2017-09-21T13:12:06.215Z,47.1
2017-09-21T13:14:06.063Z,47.3
2017-09-21T13:16:05.784Z,47.4
2017-09-21T13:18:05.215Z,47.5
2017-09-21T13:20:06.219Z,47.5
2017-09-21T13:22:08.522Z,47.5
2017-09-21T13:24:05.840Z,47.5
2017-09-21T13:26:05.161Z,47.7
2017-09-21T13:28:08.556Z,47.6
2017-09-21T13:30:05.308Z,47.7
2017-09-21T13:32:05.156Z,47.7
2017-09-21T13:34:05.906Z,47.8
2017-09-21T13:36:05.905Z,47.8
2017-09-21T13:38:05.492Z,47.9
2017-09-21T13:40:07.795Z,47.7
2017-09-21T13:42:05.494Z,47.7
2017-09-21T13:44:08.020Z,47.9
2017-09-21T13:46:10.790Z,47.7
2017-09-21T13:48:05.461Z,47.9
2017-09-21T13:50:05.217Z,48
2017-09-21T13:52:05.918Z,47.7
2017-09-21T13:54:08.193Z,47.6
2017-09-21T13:56:06.095Z,47.6
2017-09-21T13:58:05.298Z,47.8
2017-09-21T14:00:05.671Z,47.5
2017-09-21T14:02:11.288Z,47.5
2017-09-21T14:04:05.992Z,47.5
2017-09-21T14:06:05.709Z,47.7
2017-09-21T14:08:05.993Z,47.4
2017-09-21T14:10:05.318Z,47.7
2017-09-21T14:12:05.012Z,47.5
2017-09-21T14:14:05.737Z,47.5
2017-09-21T14:16:08.569Z,47.4
2017-09-21T14:18:05.487Z,47.5
2017-09-21T14:20:05.266Z,47.4
2017-09-21T14:22:05.574Z,47.5
2017-09-21T14:24:05.332Z,47.5
2017-09-21T14:26:05.872Z,47.2
2017-09-21T14:28:05.569Z,47.2
2017-09-21T14:30:08.464Z,47.2
2017-09-21T14:32:05.293Z,47.4
2017-09-21T14:34:06.015Z,47.4
2017-09-21T14:36:20.362Z,47.1
2017-09-21T14:38:05.227Z,47.1
2017-09-21T14:40:05.991Z,47.3
2017-09-21T14:42:05.842Z,47.1
2017-09-21T14:44:12.743Z,47.3
2017-09-21T14:46:05.391Z,47.1
2017-09-21T14:48:05.296Z,47.1
2017-09-21T14:50:08.576Z,47.2
2017-09-21T14:52:05.320Z,47
2017-09-21T14:54:08.534Z,47
2017-09-21T14:56:10.615Z,47
2017-09-21T14:58:05.289Z,47
2017-09-21T15:00:05.972Z,47
2017-09-21T15:02:05.913Z,47
2017-09-21T15:04:05.141Z,47
2017-09-21T15:06:05.901Z,47
2017-09-21T15:08:05.881Z,47
2017-09-21T15:10:05.624Z,47
2017-09-21T15:12:05.982Z,46.9
2017-09-21T15:14:05.862Z,46.9
2017-09-21T15:16:05.553Z,46.9
2017-09-21T15:18:05.708Z,46.9
2017-09-21T15:20:10.498Z,46.8
2017-09-21T15:22:05.212Z,46.8
2017-09-21T15:24:05.086Z,46.8
2017-09-21T15:26:05.913Z,46.8
2017-09-21T15:28:05.595Z,46.7
2017-09-21T15:30:05.372Z,46.7
2017-09-21T15:32:05.147Z,46.7
2017-09-21T15:34:12.987Z,46.6
2017-09-21T15:36:05.712Z,46.6
2017-09-21T15:38:10.745Z,46.6
2017-09-21T15:40:05.400Z,46.6
2017-09-21T15:42:05.338Z,46.6
2017-09-21T15:44:05.305Z,46.6
2017-09-21T15:46:12.675Z,46.7
2017-09-21T15:48:10.402Z,46.7
2017-09-21T15:50:05.316Z,46.6
2017-09-21T15:52:05.335Z,46.8
2017-09-21T15:54:05.098Z,46.8
2017-09-21T15:56:05.590Z,46.8
2017-09-21T15:58:05.525Z,46.7
2017-09-21T16:00:05.242Z,46.9
2017-09-21T16:02:11.015Z,47.3
2017-09-21T16:04:05.725Z,47
2017-09-21T16:06:05.443Z,47.1
2017-09-21T16:08:05.275Z,47.2
2017-09-21T16:10:08.487Z,47.4
2017-09-21T16:12:05.742Z,47.4
2017-09-21T16:14:06.150Z,47.2
2017-09-21T16:16:06.059Z,47.3
2017-09-21T16:18:10.691Z,47.2
2017-09-21T16:20:06.586Z,47.2
2017-09-21T16:22:05.307Z,47.5
2017-09-21T16:24:05.330Z,47.4
2017-09-21T16:26:05.594Z,47.6
2017-09-21T16:28:05.327Z,47.6
2017-09-21T16:30:05.036Z,47.5
2017-09-21T16:32:05.836Z,47.4
2017-09-21T16:34:05.125Z,47.3
2017-09-21T16:36:05.819Z,47.5
2017-09-21T16:38:13.449Z,47.5
2017-09-21T16:40:07.999Z,47.5
2017-09-21T16:42:05.660Z,47.5
2017-09-21T16:44:06.025Z,47.5
2017-09-21T16:46:05.213Z,47.4
2017-09-21T16:48:05.975Z,47.4
2017-09-21T16:50:05.842Z,47.4
2017-09-21T16:52:05.524Z,47.4
2017-09-21T16:54:07.771Z,47.5
2017-09-21T16:56:05.852Z,47.5
2017-09-21T16:58:05.611Z,47.4
2017-09-21T17:00:05.319Z,47.5
2017-09-21T17:02:07.855Z,47.5
2017-09-21T17:04:05.557Z,47.5
2017-09-21T17:06:07.817Z,47.6
2017-09-21T17:08:07.591Z,47.5
2017-09-21T17:10:05.275Z,47.5
2017-09-21T17:12:06.176Z,47.7
2017-09-21T17:14:05.972Z,47.6
2017-09-21T17:16:08.230Z,47.6
2017-09-21T17:18:15.212Z,47.3
2017-09-21T17:20:08.571Z,47.3
2017-09-21T17:22:12.887Z,47.3
2017-09-21T17:24:05.634Z,47.3
2017-09-21T17:26:10.416Z,47.2
2017-09-21T17:28:05.283Z,47.1
2017-09-21T17:30:08.549Z,47.1
2017-09-21T17:32:05.428Z,47.1
2017-09-21T17:34:05.595Z,47
2017-09-21T17:36:11.065Z,47.1
2017-09-21T17:38:08.768Z,47.2
2017-09-21T17:40:05.546Z,47.2
2017-09-21T17:42:05.352Z,47.3
2017-09-21T17:44:05.304Z,47.4
2017-09-21T17:46:05.579Z,47.3
2017-09-21T17:48:05.287Z,47.3
2017-09-21T17:50:05.981Z,47.5
2017-09-21T17:52:05.714Z,47.2
2017-09-21T17:54:05.564Z,47.3
2017-09-21T17:56:05.301Z,46.9
2017-09-21T17:58:08.564Z,46.7
2017-09-21T18:00:05.666Z,46.7
2017-09-21T18:02:05.428Z,46.6
2017-09-21T18:04:05.114Z,46.8
2017-09-21T18:06:05.985Z,46.4
2017-09-21T18:08:05.688Z,46.4
2017-09-21T18:10:06.065Z,46.4
2017-09-21T18:12:08.490Z,46.2
2017-09-21T18:14:05.297Z,46.2
2017-09-21T18:16:06.083Z,46.4
2017-09-21T18:18:05.811Z,46.4
2017-09-21T18:20:05.158Z,46.4
2017-09-21T18:22:05.987Z,46.4
2017-09-21T18:24:06.056Z,46.4
2017-09-21T18:26:06.005Z,46.4
2017-09-21T18:28:05.735Z,46.4
2017-09-21T18:30:08.216Z,46.3
2017-09-21T18:32:11.103Z,46.3
2017-09-21T18:34:05.859Z,46.6
2017-09-21T18:36:05.880Z,46.6
2017-09-21T18:38:08.134Z,46.5
2017-09-21T18:40:05.840Z,46.7
2017-09-21T18:42:13.367Z,46.6
2017-09-21T18:44:05.756Z,46.5
2017-09-21T18:46:05.496Z,46.6
2017-09-21T18:48:10.438Z,46.9
2017-09-21T18:50:07.732Z,46.9
2017-09-21T18:52:07.962Z,46.9
2017-09-21T18:54:08.843Z,47
2017-09-21T18:56:06.233Z,46.9
2017-09-21T18:58:08.673Z,46.9
2017-09-21T19:00:05.507Z,46.9
2017-09-21T19:02:05.901Z,46.9
2017-09-21T19:04:05.619Z,46.7
2017-09-21T19:06:05.345Z,46.9
2017-09-21T19:08:05.183Z,46.9
2017-09-21T19:10:05.878Z,46.9
2017-09-21T19:12:05.645Z,46.9
2017-09-21T19:14:05.354Z,46.9
2017-09-21T19:16:08.262Z,47
2017-09-21T19:18:10.925Z,46.9
2017-09-21T19:20:05.445Z,47
2017-09-21T19:22:05.205Z,46.9
2017-09-21T19:24:06.123Z,46.9
2017-09-21T19:26:05.803Z,46.7
2017-09-21T19:28:05.537Z,47
2017-09-21T19:30:08.089Z,47
2017-09-21T19:32:05.783Z,47
2017-09-21T19:34:07.006Z,46.9
2017-09-21T19:36:06.115Z,47
2017-09-21T19:38:05.647Z,47
2017-09-21T19:40:08.334Z,46.8
2017-09-21T19:42:13.778Z,47.1
2017-09-21T19:44:06.180Z,47.1
2017-09-21T19:46:06.614Z,47
2017-09-21T19:48:05.590Z,47.1
2017-09-21T19:50:07.919Z,47.1
2017-09-21T19:52:06.018Z,47.1
2017-09-21T19:54:06.080Z,47.1
2017-09-21T19:56:06.027Z,47.1
2017-09-21T19:58:05.477Z,47.1
2017-09-21T20:00:07.940Z,47.2
2017-09-21T20:02:11.019Z,47
2017-09-21T20:04:05.766Z,47.2
2017-09-21T20:06:08.147Z,47
2017-09-21T20:08:05.891Z,47
2017-09-21T20:10:06.101Z,47
2017-09-21T20:12:08.628Z,47.1
2017-09-21T20:14:07.862Z,47.1
2017-09-21T20:16:05.637Z,47
2017-09-21T20:18:05.509Z,47
2017-09-21T20:20:05.214Z,47
2017-09-21T20:22:05.184Z,46.9
2017-09-21T20:24:08.064Z,47.3
2017-09-21T20:26:05.908Z,47.1
2017-09-21T20:28:05.418Z,47.1
2017-09-21T20:30:05.122Z,47.1
2017-09-21T20:32:10.728Z,47.1
2017-09-21T20:34:05.263Z,47.1
2017-09-21T20:36:05.004Z,47.1
2017-09-21T20:38:05.722Z,47.2
2017-09-21T20:40:06.064Z,47.1
2017-09-21T20:42:06.779Z,47.1
2017-09-21T20:44:05.936Z,47.2
2017-09-21T20:46:05.879Z,47.2
2017-09-21T20:48:05.547Z,47.2
2017-09-21T20:50:08.098Z,47.2
2017-09-21T20:52:06.088Z,47.2
2017-09-21T20:54:05.519Z,47
2017-09-21T20:56:05.263Z,47.2
2017-09-21T20:58:06.218Z,47.2
2017-09-21T21:00:05.356Z,47
2017-09-21T21:02:07.802Z,47
2017-09-21T21:04:13.091Z,47.3
2017-09-21T21:06:05.763Z,47.1
2017-09-21T21:08:08.107Z,47.1
2017-09-21T21:10:05.465Z,47.1
2017-09-21T21:12:07.817Z,47.1
2017-09-21T21:14:05.088Z,47.1
2017-09-21T21:16:06.178Z,47.2
2017-09-21T21:18:05.824Z,47.2
2017-09-21T21:20:05.583Z,47.3
2017-09-21T21:22:08.013Z,47.3
2017-09-21T21:24:05.885Z,47.3
2017-09-21T21:26:05.638Z,47.3
2017-09-21T21:28:05.899Z,47.3
2017-09-21T21:30:05.583Z,47.3
2017-09-21T21:32:05.809Z,47.3
2017-09-21T21:34:05.276Z,47.3
2017-09-21T21:36:05.528Z,47.3
2017-09-21T21:38:06.493Z,47.3
2017-09-21T21:40:06.348Z,47.3
2017-09-21T21:42:05.168Z,47.3
2017-09-21T21:44:09.545Z,47.3
2017-09-21T21:46:05.451Z,47.3
2017-09-21T21:48:07.911Z,47.3
2017-09-21T21:50:06.018Z,47.1
2017-09-21T21:52:05.737Z,47.1
2017-09-21T21:54:08.496Z,47.3
2017-09-21T21:56:05.296Z,47.3
2017-09-21T21:58:06.036Z,47.1
2017-09-21T22:00:05.497Z,47
2017-09-21T22:02:05.207Z,47
2017-09-21T22:04:05.952Z,47
2017-09-21T22:06:08.160Z,47
2017-09-21T22:08:05.894Z,47
2017-09-21T22:10:05.749Z,47
2017-09-21T22:12:13.040Z,47
2017-09-21T22:14:05.679Z,47
2017-09-21T22:16:06.065Z,47
2017-09-21T22:18:05.485Z,47
2017-09-21T22:20:07.813Z,46.9
2017-09-21T22:22:05.877Z,46.9
2017-09-21T22:24:05.571Z,47
2017-09-21T22:26:07.800Z,47
2017-09-21T22:28:05.497Z,47
2017-09-21T22:30:13.324Z,47
2017-09-21T22:32:05.131Z,47
2017-09-21T22:34:05.985Z,47
2017-09-21T22:36:05.665Z,47
2017-09-21T22:38:05.372Z,47.1
2017-09-21T22:40:05.074Z,47.1
2017-09-21T22:42:05.865Z,47.1
2017-09-21T22:44:08.085Z,47.1
2017-09-21T22:46:08.477Z,47.1
2017-09-21T22:48:05.359Z,47.1
2017-09-21T22:50:07.631Z,47.1
2017-09-21T22:52:05.996Z,46.9
2017-09-21T22:54:05.242Z,47.2
2017-09-21T22:56:06.017Z,47
2017-09-21T22:58:05.904Z,47
2017-09-21T23:00:05.557Z,47.2
2017-09-21T23:02:05.278Z,47.2
2017-09-21T23:04:05.674Z,47
2017-09-21T23:06:05.382Z,47
2017-09-21T23:08:05.086Z,47.2
2017-09-21T23:10:11.057Z,46.9
2017-09-21T23:12:05.751Z,46.9
2017-09-21T23:14:08.000Z,46.9
2017-09-21T23:16:06.046Z,46.9
2017-09-21T23:18:05.927Z,46.9
2017-09-21T23:20:05.666Z,46.9
2017-09-21T23:22:05.376Z,46.9
2017-09-21T23:24:07.568Z,46.8
2017-09-21T23:26:10.346Z,46.9
2017-09-21T23:28:05.167Z,46.9
2017-09-21T23:30:05.861Z,46.9
2017-09-21T23:32:05.069Z,46.9
2017-09-21T23:34:05.849Z,46.9
2017-09-21T23:36:05.751Z,46.9
2017-09-21T23:38:05.575Z,46.9
2017-09-21T23:40:05.552Z,46.9
2017-09-21T23:42:07.807Z,46.9
2017-09-21T23:44:08.060Z,47
2017-09-21T23:46:08.332Z,47
2017-09-21T23:48:07.590Z,47
2017-09-21T23:50:05.338Z,47
2017-09-21T23:52:05.217Z,47
2017-09-21T23:54:05.914Z,47
2017-09-21T23:56:17.781Z,47
2017-09-21T23:58:06.125Z,47
